Time;durP1;ratioP1;P1;durP2;ratioP2;P2;SDS_P1;SDS_P2;PMS_P1;PMS_P2;Temp;Humidity;BMP_temperature;BMP_pressure;BME280_temperature;BME280_humidity;BME280_pressure;Samples;Min_cycle;Max_cycle;Signal;HPM_P1;HPM_P2
2022/12/20 00:00:11;;;;;;;;;;;11.60;99.90;;;;;;5074152;28;19924;-81
2022/12/20 00:02:37;;;;;;;;;;;11.60;99.90;;;;;;5073848;28;19913;-82
2022/12/20 00:05:02;;;;;;;;;;;11.60;99.90;;;;;;5074184;28;19991;-82
2022/12/20 00:07:28;;;;;;;;;;;11.60;99.90;;;;;;5072735;28;19912;-82
2022/12/20 00:09:53;;;;;;;;;;;11.60;99.90;;;;;;5072663;28;19997;-81
2022/12/20 00:12:18;;;;;;;;;;;11.60;99.90;;;;;;5073861;28;20385;-82
2022/12/20 00:14:44;;;;;;;;;;;11.60;99.90;;;;;;5072701;28;20263;-82
2022/12/20 00:17:09;;;;;;;;;;;11.60;99.90;;;;;;5073999;28;19909;-82
2022/12/20 00:19:35;;;;;;;;;;;11.60;99.90;;;;;;5073498;28;20412;-82
2022/12/20 00:22:00;;;;;;;;;;;11.60;99.90;;;;;;5073664;28;19991;-82
2022/12/20 00:24:26;;;;;;;;;;;11.70;99.90;;;;;;5073818;28;19913;-82
2022/12/20 00:26:51;;;;;;;;;;;11.60;99.90;;;;;;5074067;28;19932;-82
2022/12/20 00:29:17;;;;;;;;;;;11.60;99.90;;;;;;5073773;28;19913;-82
2022/12/20 00:31:42;;;;;;;;;;;11.50;99.90;;;;;;5073464;28;19908;-82
2022/12/20 00:34:08;;;;;;;;;;;11.40;99.90;;;;;;5073723;28;19912;-82
2022/12/20 00:36:33;;;;;;;;;;;11.40;99.90;;;;;;5073705;28;20493;-82
2022/12/20 00:38:59;;;;;;;;;;;11.30;99.90;;;;;;5073716;28;19916;-82
2022/12/20 00:41:29;;;;;;;;;;;11.30;99.90;;;;;;5073453;28;19913;-82
2022/12/20 00:43:55;;;;;;;;;;;11.30;99.90;;;;;;5073578;28;19916;-82
2022/12/20 00:46:22;;;;;;;;;;;11.30;99.90;;;;;;5073991;28;20282;-82
2022/12/20 00:48:47;;;;;;;;;;;11.40;99.90;;;;;;5073416;28;19917;-81
2022/12/20 00:51:14;;;;;;;;;;;11.40;99.90;;;;;;5073103;28;19909;-82
2022/12/20 00:53:40;;;;;;;;;;;11.40;99.90;;;;;;5073152;28;19959;-82
2022/12/20 00:56:06;;;;;;;;;;;11.40;99.90;;;;;;5073271;28;19909;-82
2022/12/20 00:58:35;;;;;;;;;;;11.40;99.90;;;;;;5073188;28;19909;-82
2022/12/20 01:01:01;;;;;;;;;;;11.40;99.90;;;;;;5072908;28;19909;-82
2022/12/20 01:03:27;;;;;;;;;;;11.40;99.90;;;;;;5073113;28;19927;-82
2022/12/20 01:05:53;;;;;;;;;;;11.40;99.90;;;;;;5073113;28;19909;-82
2022/12/20 01:08:20;;;;;;;;;;;11.40;99.90;;;;;;5073080;28;19912;-82
2022/12/20 01:10:46;;;;;;;;;;;11.50;99.90;;;;;;5071694;28;19946;-82
2022/12/20 01:13:11;;;;;;;;;;;11.40;99.90;;;;;;5071429;28;19995;-82
2022/12/20 01:15:37;;;;;;;;;;;11.40;99.90;;;;;;5073104;28;19951;-82
2022/12/20 01:18:02;;;;;;;;;;;11.40;99.90;;;;;;5072981;28;19908;-82
2022/12/20 01:20:28;;;;;;;;;;;11.50;99.90;;;;;;5073019;28;20350;-82
2022/12/20 01:22:53;;;;;;;;;;;11.50;99.90;;;;;;5072540;28;19912;-82
2022/12/20 01:25:19;;;;;;;;;;;11.50;99.90;;;;;;5072860;28;19944;-82
2022/12/20 01:27:45;;;;;;;;;;;11.60;99.90;;;;;;5072806;28;19909;-82
2022/12/20 01:30:10;;;;;;;;;;;11.60;99.90;;;;;;5071900;28;20306;-82
2022/12/20 01:32:36;;;;;;;;;;;11.60;99.90;;;;;;5072637;28;20320;-81
2022/12/20 01:35:02;;;;;;;;;;;11.60;99.90;;;;;;5073165;28;20000;-83
2022/12/20 01:37:27;;;;;;;;;;;11.60;99.90;;;;;;5073040;28;20392;-82
2022/12/20 01:39:52;;;;;;;;;;;11.60;99.90;;;;;;5073131;28;19969;-81
2022/12/20 01:42:18;;;;;;;;;;;11.60;99.90;;;;;;5070810;28;20496;-82
2022/12/20 01:44:43;;;;;;;;;;;11.60;99.90;;;;;;5072634;28;19962;-81
2022/12/20 01:47:11;;;;;;;;;;;11.60;99.90;;;;;;5071221;28;19934;-82
2022/12/20 01:49:41;;;;;;;;;;;11.60;99.90;;;;;;5072419;28;19909;-82
2022/12/20 01:52:18;;;;;;;;;;;11.60;99.90;;;;;;5072014;28;19909;-82
2022/12/20 01:54:51;;;;;;;;;;;11.60;99.90;;;;;;5072532;28;19909;-82
2022/12/20 01:57:24;;;;;;;;;;;11.60;99.90;;;;;;5072366;28;20384;-83
2022/12/20 01:59:50;;;;;;;;;;;11.60;99.90;;;;;;5072384;28;19908;-82
2022/12/20 02:02:16;;;;;;;;;;;11.60;99.90;;;;;;5071955;28;19923;-82
2022/12/20 02:04:41;;;;;;;;;;;11.60;99.90;;;;;;5072409;28;19908;-82
2022/12/20 02:07:10;;;;;;;;;;;11.60;99.90;;;;;;5070966;28;20005;-82
2022/12/20 02:09:36;;;;;;;;;;;11.60;99.90;;;;;;5072135;28;19931;-83
2022/12/20 02:12:02;;;;;;;;;;;11.60;99.90;;;;;;5070630;28;19908;-82
2022/12/20 02:14:30;;;;;;;;;;;11.60;99.90;;;;;;5072258;28;19962;-82
2022/12/20 02:17:09;;;;;;;;;;;11.50;99.90;;;;;;5072204;28;19909;-82
2022/12/20 02:19:41;;;;;;;;;;;11.50;99.90;;;;;;5072376;28;19912;-82
2022/12/20 02:22:22;;;;;;;;;;;11.50;99.90;;;;;;5072429;28;19909;-82
2022/12/20 02:25:05;;;;;;;;;;;11.40;99.90;;;;;;5071400;28;20344;-82
2022/12/20 02:27:47;;;;;;;;;;;11.40;99.90;;;;;;5072727;28;19909;-82
2022/12/20 02:30:17;;;;;;;;;;;11.50;99.90;;;;;;5072026;28;19909;-82
2022/12/20 02:33:09;;;;;;;;;;;11.50;99.90;;;;;;5070738;28;19924;-81
2022/12/20 02:35:36;;;;;;;;;;;11.50;99.90;;;;;;5068532;28;19908;-82
2022/12/20 02:38:03;;;;;;;;;;;11.50;99.90;;;;;;5070835;28;19908;-81
2022/12/20 02:40:38;;;;;;;;;;;11.50;99.90;;;;;;5072499;28;19916;-82
2022/12/20 02:45:14;;;;;;;;;;;11.50;99.90;;;;;;5075277;28;19919;-81
2022/12/20 02:45:51;;;;;;;;;;;11.50;99.90;;;;;;5076030;28;19909;-82
2022/12/20 02:48:17;;;;;;;;;;;11.50;99.90;;;;;;5075962;28;19915;-83
2022/12/20 02:50:48;;;;;;;;;;;11.50;99.90;;;;;;5074832;28;19963;-82
2022/12/20 02:53:15;;;;;;;;;;;11.50;99.90;;;;;;5075560;28;19915;-82
2022/12/20 02:55:59;;;;;;;;;;;11.50;99.90;;;;;;5075780;28;19916;-82
2022/12/20 02:58:27;;;;;;;;;;;11.50;99.90;;;;;;5074393;28;20369;-82
2022/12/20 03:00:55;;;;;;;;;;;11.50;99.90;;;;;;5074038;28;19912;-82
2022/12/20 03:03:23;;;;;;;;;;;11.50;99.90;;;;;;5073852;28;19958;-81
2022/12/20 03:05:53;;;;;;;;;;;11.50;99.90;;;;;;5075281;28;20098;-82
2022/12/20 03:08:19;;;;;;;;;;;11.50;99.90;;;;;;5092996;28;19923;-82
2022/12/20 03:10:45;;;;;;;;;;;11.50;99.90;;;;;;5094155;28;19935;-82
2022/12/20 03:13:10;;;;;;;;;;;11.40;99.90;;;;;;5095357;28;19944;-81
2022/12/20 03:15:36;;;;;;;;;;;11.40;99.90;;;;;;5094105;28;19915;-82
2022/12/20 03:18:01;;;;;;;;;;;11.40;99.90;;;;;;5095290;28;20362;-83
2022/12/20 03:20:27;;;;;;;;;;;11.30;99.90;;;;;;5095031;28;19916;-82
2022/12/20 03:22:52;;;;;;;;;;;11.30;99.90;;;;;;5095055;28;20380;-81
2022/12/20 03:25:18;;;;;;;;;;;11.30;99.90;;;;;;5095098;28;20394;-82
2022/12/20 03:27:44;;;;;;;;;;;11.30;99.90;;;;;;5095135;28;19908;-82
2022/12/20 03:30:10;;;;;;;;;;;11.30;99.90;;;;;;5095000;28;20046;-82
2022/12/20 03:32:36;;;;;;;;;;;11.20;99.90;;;;;;5094756;28;19908;-82
2022/12/20 03:35:01;;;;;;;;;;;11.10;99.90;;;;;;5094889;28;19908;-81
2022/12/20 03:37:26;;;;;;;;;;;11.00;99.90;;;;;;5094921;28;20270;-82
2022/12/20 03:39:52;;;;;;;;;;;11.00;99.90;;;;;;5093481;28;19916;-82
2022/12/20 03:42:17;;;;;;;;;;;10.90;99.90;;;;;;5094506;28;20361;-82
2022/12/20 03:44:43;;;;;;;;;;;10.90;99.90;;;;;;5093443;28;19931;-81
2022/12/20 03:47:08;;;;;;;;;;;10.80;99.90;;;;;;5094803;28;19994;-82
2022/12/20 03:49:34;;;;;;;;;;;10.80;99.90;;;;;;5094556;28;19908;-81
2022/12/20 03:51:59;;;;;;;;;;;10.80;99.90;;;;;;5094390;28;19908;-82
2022/12/20 03:54:25;;;;;;;;;;;10.70;99.90;;;;;;5092420;28;19915;-82
2022/12/20 03:56:50;;;;;;;;;;;10.70;99.90;;;;;;5094564;28;19908;-82
2022/12/20 03:59:16;;;;;;;;;;;10.70;99.90;;;;;;5094408;28;19912;-81
2022/12/20 04:01:41;;;;;;;;;;;10.70;99.90;;;;;;5092994;28;19908;-81
2022/12/20 04:04:08;;;;;;;;;;;10.70;99.90;;;;;;5094343;28;20015;-81
2022/12/20 04:06:34;;;;;;;;;;;10.70;99.90;;;;;;5094343;28;19909;-81
2022/12/20 04:08:59;;;;;;;;;;;10.70;99.90;;;;;;5092968;28;19915;-81
2022/12/20 04:11:25;;;;;;;;;;;10.70;99.90;;;;;;5092722;28;20373;-81
2022/12/20 04:13:51;;;;;;;;;;;10.70;99.90;;;;;;5093015;28;19908;-82
2022/12/20 04:16:18;;;;;;;;;;;10.70;99.90;;;;;;5094170;28;19912;-82
2022/12/20 04:18:43;;;;;;;;;;;10.70;99.90;;;;;;5092943;28;20376;-81
2022/12/20 04:21:09;;;;;;;;;;;10.70;99.90;;;;;;5092457;28;19995;-81
2022/12/20 04:23:35;;;;;;;;;;;10.60;99.90;;;;;;5094011;28;19912;-82
2022/12/20 04:26:01;;;;;;;;;;;10.60;99.90;;;;;;5094492;28;20027;-82
2022/12/20 04:28:27;;;;;;;;;;;10.60;99.90;;;;;;5094204;28;19955;-81
2022/12/20 04:30:53;;;;;;;;;;;10.60;99.90;;;;;;5094247;28;19939;-80
2022/12/20 04:33:18;;;;;;;;;;;10.60;99.90;;;;;;5094156;28;20346;-81
2022/12/20 04:35:44;;;;;;;;;;;10.50;99.90;;;;;;5094305;28;19953;-83
2022/12/20 04:38:09;;;;;;;;;;;10.50;99.90;;;;;;5092818;28;19908;-81
2022/12/20 04:40:35;;;;;;;;;;;10.50;99.90;;;;;;5093647;28;19920;-81
2022/12/20 04:43:00;;;;;;;;;;;10.50;99.90;;;;;;5093382;28;19912;-81
2022/12/20 04:45:25;;;;;;;;;;;10.50;99.90;;;;;;5092332;28;19915;-81
2022/12/20 04:47:51;;;;;;;;;;;10.40;99.90;;;;;;5092393;28;19908;-82
2022/12/20 04:50:17;;;;;;;;;;;10.40;99.90;;;;;;5092208;28;19912;-81
2022/12/20 04:55:27;;;;;;;;;;;10.40;99.90;;;;;;5093385;28;19919;-81
2022/12/20 04:57:53;;;;;;;;;;;10.40;99.90;;;;;;5093444;28;20369;-82
2022/12/20 05:00:18;;;;;;;;;;;10.40;99.90;;;;;;5093731;28;19998;-81
2022/12/20 05:02:44;;;;;;;;;;;10.50;99.90;;;;;;5093242;28;19916;-81
2022/12/20 05:05:09;;;;;;;;;;;10.40;99.90;;;;;;5093456;28;19914;-81
2022/12/20 05:07:35;;;;;;;;;;;10.50;99.90;;;;;;5093490;28;19954;-81
2022/12/20 05:10:00;;;;;;;;;;;10.50;99.90;;;;;;5093759;28;19908;-84
2022/12/20 05:12:26;;;;;;;;;;;10.50;99.90;;;;;;5094141;28;19947;-82
2022/12/20 05:14:51;;;;;;;;;;;10.60;99.90;;;;;;5094360;28;19908;-83
2022/12/20 05:17:16;;;;;;;;;;;10.60;99.90;;;;;;5094075;28;20002;-82
2022/12/20 05:19:42;;;;;;;;;;;10.60;99.90;;;;;;5093086;28;19908;-82
2022/12/20 05:27:37;;;;;;;;;;;10.60;99.90;;;;;;5094207;28;19938;-82
2022/12/20 05:30:03;;;;;;;;;;;10.70;99.90;;;;;;5093927;28;19908;-81
2022/12/20 05:32:29;;;;;;;;;;;10.70;99.90;;;;;;5092582;28;20361;-82
2022/12/20 05:34:54;;;;;;;;;;;10.70;99.90;;;;;;5093953;28;19994;-81
2022/12/20 05:37:19;;;;;;;;;;;10.80;99.90;;;;;;5094272;28;19908;-82
2022/12/20 05:39:45;;;;;;;;;;;10.80;99.90;;;;;;5094047;28;20012;-82
2022/12/20 05:42:11;;;;;;;;;;;10.80;99.90;;;;;;5093869;28;20293;-81
2022/12/20 05:44:36;;;;;;;;;;;10.80;99.90;;;;;;5093883;28;19947;-82
2022/12/20 05:47:02;;;;;;;;;;;10.80;99.90;;;;;;5093940;28;20015;-83
2022/12/20 05:49:27;;;;;;;;;;;10.80;99.90;;;;;;5093870;28;19914;-81
2022/12/20 05:51:53;;;;;;;;;;;10.80;99.90;;;;;;5092518;28;19999;-83
2022/12/20 05:54:18;;;;;;;;;;;10.80;99.90;;;;;;5093653;28;19912;-83
2022/12/20 05:56:44;;;;;;;;;;;10.90;99.90;;;;;;5093836;28;20314;-83
2022/12/20 05:59:09;;;;;;;;;;;10.90;99.90;;;;;;5093652;28;20324;-84
2022/12/20 06:01:35;;;;;;;;;;;10.90;99.90;;;;;;5091939;28;20014;-83
2022/12/20 06:04:01;;;;;;;;;;;10.90;99.90;;;;;;5092709;28;19912;-82
2022/12/20 06:06:26;;;;;;;;;;;10.90;99.90;;;;;;5093231;28;19916;-82
2022/12/20 06:08:52;;;;;;;;;;;10.90;99.90;;;;;;5093254;28;19954;-83
2022/12/20 06:11:17;;;;;;;;;;;11.00;99.90;;;;;;5092913;28;19915;-82
2022/12/20 06:13:43;;;;;;;;;;;11.00;99.90;;;;;;5093004;28;19974;-82
2022/12/20 06:16:08;;;;;;;;;;;11.00;99.90;;;;;;5093834;28;19908;-82
2022/12/20 06:18:33;;;;;;;;;;;11.00;99.90;;;;;;5096712;28;20297;-82
2022/12/20 06:20:59;;;;;;;;;;;11.00;99.90;;;;;;5097634;28;19908;-83
2022/12/20 06:23:24;;;;;;;;;;;11.00;99.90;;;;;;5097887;28;19959;-83
2022/12/20 06:25:50;;;;;;;;;;;11.00;99.90;;;;;;5097809;28;20375;-82
2022/12/20 06:28:20;;;;;;;;;;;11.00;99.90;;;;;;5097651;28;20258;-82
2022/12/20 06:30:56;;;;;;;;;;;11.00;99.90;;;;;;5097281;28;20311;-83
2022/12/20 06:33:22;;;;;;;;;;;11.00;99.90;;;;;;5096507;28;19912;-82
2022/12/20 06:35:51;;;;;;;;;;;11.10;99.90;;;;;;5097690;28;20331;-81
2022/12/20 06:38:17;;;;;;;;;;;11.10;99.90;;;;;;5097497;28;19912;-83
2022/12/20 06:40:42;;;;;;;;;;;11.10;99.90;;;;;;5095966;28;19951;-83
2022/12/20 06:43:08;;;;;;;;;;;11.00;99.90;;;;;;5097003;28;19963;-82
2022/12/20 06:45:33;;;;;;;;;;;11.00;99.90;;;;;;5096335;28;19909;-84
2022/12/20 06:47:59;;;;;;;;;;;11.10;99.90;;;;;;5097021;28;19910;-83
2022/12/20 06:50:24;;;;;;;;;;;11.10;99.90;;;;;;5095619;28;20327;-83
2022/12/20 06:52:50;;;;;;;;;;;11.00;99.90;;;;;;5096873;28;19962;-83
2022/12/20 06:55:15;;;;;;;;;;;11.00;99.90;;;;;;5096131;28;19909;-82
2022/12/20 06:57:41;;;;;;;;;;;11.00;99.90;;;;;;5098935;28;19912;-81
2022/12/20 07:00:09;;;;;;;;;;;10.90;99.90;;;;;;5098022;28;20401;-81
2022/12/20 07:02:34;;;;;;;;;;;11.00;99.90;;;;;;5097504;28;19931;-84
2022/12/20 07:05:00;;;;;;;;;;;11.00;99.90;;;;;;5097441;28;19908;-81
2022/12/20 07:07:25;;;;;;;;;;;11.00;99.90;;;;;;5097819;28;20293;-81
2022/12/20 07:09:51;;;;;;;;;;;11.00;99.90;;;;;;5097773;28;19972;-82
2022/12/20 07:12:17;;;;;;;;;;;11.00;99.90;;;;;;5095433;28;19912;-81
2022/12/20 07:14:43;;;;;;;;;;;11.00;99.90;;;;;;5095698;28;19908;-81
2022/12/20 07:17:08;;;;;;;;;;;11.00;99.90;;;;;;5095504;28;19914;-81
2022/12/20 07:19:35;;;;;;;;;;;11.00;99.90;;;;;;5095686;28;19980;-81
2022/12/20 07:22:00;;;;;;;;;;;11.00;99.90;;;;;;5094235;28;19908;-82
2022/12/20 07:24:26;;;;;;;;;;;11.00;99.90;;;;;;5095660;28;19961;-81
2022/12/20 07:26:51;;;;;;;;;;;11.00;99.90;;;;;;5094217;28;19908;-81
2022/12/20 07:29:17;;;;;;;;;;;11.00;99.90;;;;;;5094242;28;19923;-82
2022/12/20 07:31:42;;;;;;;;;;;11.00;99.90;;;;;;5093761;28;20347;-81
2022/12/20 07:34:08;;;;;;;;;;;11.00;99.90;;;;;;5095874;28;19915;-81
2022/12/20 07:36:34;;;;;;;;;;;11.00;99.90;;;;;;5095926;28;19908;-83
2022/12/20 07:41:27;;;;;;;;;;;10.90;99.90;;;;;;5073435;28;19925;-82
2022/12/20 07:43:53;;;;;;;;;;;10.90;99.90;;;;;;5073891;28;19927;-83
2022/12/20 07:46:18;;;;;;;;;;;10.80;99.90;;;;;;5073574;28;19913;-83
2022/12/20 07:48:44;;;;;;;;;;;10.80;99.90;;;;;;5073500;28;19909;-84
2022/12/20 07:51:13;;;;;;;;;;;10.70;99.90;;;;;;5073218;28;19908;-83
2022/12/20 07:53:41;;;;;;;;;;;10.70;99.90;;;;;;5075244;28;19908;-83
2022/12/20 07:56:07;;;;;;;;;;;10.70;99.90;;;;;;5074841;28;19908;-83
2022/12/20 07:58:34;;;;;;;;;;;10.70;99.90;;;;;;5073976;28;19912;-83
2022/12/20 08:01:00;;;;;;;;;;;10.70;99.90;;;;;;5073571;28;19908;-83
2022/12/20 08:03:36;;;;;;;;;;;10.60;99.90;;;;;;5074142;28;19916;-83
2022/12/20 08:06:03;;;;;;;;;;;10.60;99.90;;;;;;5076653;28;19916;-86
2022/12/20 08:08:31;;;;;;;;;;;10.60;99.90;;;;;;5093630;28;20281;-85
2022/12/20 08:10:58;;;;;;;;;;;10.60;99.90;;;;;;5081437;28;19908;-86
2022/12/20 08:13:25;;;;;;;;;;;10.60;99.90;;;;;;5069056;28;19916;-85
2022/12/20 08:15:51;;;;;;;;;;;10.70;99.90;;;;;;5068776;28;19944;-85
2022/12/20 08:18:16;;;;;;;;;;;10.70;99.90;;;;;;5056672;28;19908;-87
2022/12/20 08:20:42;;;;;;;;;;;10.70;99.90;;;;;;5057849;28;19923;-84
2022/12/20 08:23:07;;;;;;;;;;;10.70;99.90;;;;;;5063836;28;19916;-88
2022/12/20 08:25:33;;;;;;;;;;;10.70;99.90;;;;;;5072315;28;19908;-85
2022/12/20 08:28:01;;;;;;;;;;;10.70;99.90;;;;;;5059488;28;19966;-86
2022/12/20 08:30:27;;;;;;;;;;;10.80;99.90;;;;;;5054455;28;19909;-85
2022/12/20 08:32:52;;;;;;;;;;;10.80;99.90;;;;;;5054065;28;19919;-84
2022/12/20 08:35:18;;;;;;;;;;;10.80;99.90;;;;;;5055973;28;19912;-85
2022/12/20 08:37:43;;;;;;;;;;;10.80;99.90;;;;;;5060014;28;19909;-85
2022/12/20 08:40:09;;;;;;;;;;;10.90;99.90;;;;;;5062601;28;19956;-84
2022/12/20 08:42:34;;;;;;;;;;;10.90;99.90;;;;;;5062472;28;20356;-84
2022/12/20 08:45:00;;;;;;;;;;;11.00;99.90;;;;;;5059228;28;19909;-83
2022/12/20 08:47:27;;;;;;;;;;;11.00;99.90;;;;;;5059650;28;19909;-85
2022/12/20 08:49:53;;;;;;;;;;;11.10;99.90;;;;;;5057801;28;19920;-85
2022/12/20 08:52:18;;;;;;;;;;;11.10;99.90;;;;;;5055366;28;19909;-85
2022/12/20 08:54:44;;;;;;;;;;;11.20;99.90;;;;;;5058453;28;19909;-87
2022/12/20 08:57:09;;;;;;;;;;;11.20;99.90;;;;;;5054338;28;19908;-86
2022/12/20 08:59:35;;;;;;;;;;;11.20;99.90;;;;;;5054450;28;20347;-85
2022/12/20 09:02:00;;;;;;;;;;;11.20;99.90;;;;;;5053876;28;19909;-87
2022/12/20 09:04:26;;;;;;;;;;;11.30;99.90;;;;;;5056750;28;20003;-86
2022/12/20 09:06:51;;;;;;;;;;;11.30;99.90;;;;;;5055121;28;19913;-85
2022/12/20 09:09:17;;;;;;;;;;;11.30;99.90;;;;;;5055439;28;19974;-85
2022/12/20 09:11:42;;;;;;;;;;;11.30;99.90;;;;;;5054665;28;19913;-86
2022/12/20 09:14:08;;;;;;;;;;;11.30;99.90;;;;;;5054965;28;19995;-85
2022/12/20 09:16:33;;;;;;;;;;;11.30;99.90;;;;;;5059870;28;19977;-86
2022/12/20 09:19:00;;;;;;;;;;;11.30;99.90;;;;;;5064965;28;19916;-85
2022/12/20 09:21:25;;;;;;;;;;;11.30;99.90;;;;;;5072306;28;19950;-85
2022/12/20 09:23:52;;;;;;;;;;;11.30;99.90;;;;;;5073178;28;19963;-86
2022/12/20 09:26:17;;;;;;;;;;;11.30;99.90;;;;;;5074438;28;19909;-85
2022/12/20 09:28:43;;;;;;;;;;;11.30;99.90;;;;;;5072421;28;19954;-85
2022/12/20 09:31:10;;;;;;;;;;;11.20;99.90;;;;;;5072590;28;20376;-85
2022/12/20 09:33:36;;;;;;;;;;;11.20;99.90;;;;;;5073172;28;19908;-88
2022/12/20 09:36:02;;;;;;;;;;;11.30;99.90;;;;;;5072222;28;19919;-86
2022/12/20 09:38:28;;;;;;;;;;;11.30;99.90;;;;;;5072033;28;19943;-86
2022/12/20 09:40:55;;;;;;;;;;;11.30;99.90;;;;;;5071547;28;19916;-86
2022/12/20 09:43:22;;;;;;;;;;;11.30;99.90;;;;;;5072155;28;19920;-86
2022/12/20 09:45:50;;;;;;;;;;;11.40;99.90;;;;;;5072645;28;19915;-87
2022/12/20 09:48:35;;;;;;;;;;;11.40;99.90;;;;;;5072372;28;19908;-87
2022/12/20 09:51:10;;;;;;;;;;;11.40;99.90;;;;;;5071138;28;19909;-87
2022/12/20 09:53:43;;;;;;;;;;;11.40;99.90;;;;;;5073877;28;19908;-86
2022/12/20 09:56:14;;;;;;;;;;;11.40;99.90;;;;;;5073871;28;20286;-86
2022/12/20 09:58:43;;;;;;;;;;;11.50;99.90;;;;;;5072440;28;20010;-85
2022/12/20 10:01:17;;;;;;;;;;;11.40;99.90;;;;;;5071259;28;19909;-85
2022/12/20 10:03:42;;;;;;;;;;;11.40;99.90;;;;;;5071877;28;20315;-86
2022/12/20 10:06:22;;;;;;;;;;;11.40;99.90;;;;;;5073102;28;19909;-86
2022/12/20 10:09:04;;;;;;;;;;;11.30;99.90;;;;;;5072426;28;20331;-87
2022/12/20 10:11:51;;;;;;;;;;;11.30;99.90;;;;;;5072504;28;19909;-85
2022/12/20 10:14:43;;;;;;;;;;;11.30;99.90;;;;;;5071929;28;20335;-85
2022/12/20 10:17:14;;;;;;;;;;;11.30;99.90;;;;;;5074135;28;19922;-85
2022/12/20 10:19:49;;;;;;;;;;;11.40;99.90;;;;;;5071885;28;20019;-86
2022/12/20 10:22:25;;;;;;;;;;;11.40;99.90;;;;;;5071316;28;19908;-87
2022/12/20 10:25:14;;;;;;;;;;;11.40;99.90;;;;;;5071703;28;20015;-88
2022/12/20 10:27:41;;;;;;;;;;;11.40;99.90;;;;;;5063333;28;20003;-90
2022/12/20 10:30:14;;;;;;;;;;;11.50;99.90;;;;;;5071666;28;20329;-86
2022/12/20 10:32:42;;;;;;;;;;;11.40;99.90;;;;;;5071343;28;19958;-86
2022/12/20 10:35:14;;;;;;;;;;;11.40;99.90;;;;;;5071447;28;19915;-88
2022/12/20 10:37:54;;;;;;;;;;;11.50;99.90;;;;;;5071490;28;19909;-89
2022/12/20 10:40:35;;;;;;;;;;;11.50;99.90;;;;;;5071059;28;19970;-87
2022/12/20 10:43:01;;;;;;;;;;;11.60;99.90;;;;;;5071488;28;20324;-88
2022/12/20 10:45:31;;;;;;;;;;;11.70;99.90;;;;;;5071964;28;19915;-88
2022/12/20 10:47:58;;;;;;;;;;;11.80;99.90;;;;;;5072404;28;19965;-89
2022/12/20 10:50:24;;;;;;;;;;;11.80;99.90;;;;;;5073864;28;19908;-87
2022/12/20 10:53:10;;;;;;;;;;;11.80;99.90;;;;;;5072615;28;20385;-89
2022/12/20 10:55:37;;;;;;;;;;;11.90;99.90;;;;;;5070811;28;20408;-89
2022/12/20 10:58:12;;;;;;;;;;;11.90;99.90;;;;;;5071185;28;19909;-86
2022/12/20 11:00:40;;;;;;;;;;;12.10;99.90;;;;;;5071167;28;19920;-86
2022/12/20 11:03:28;;;;;;;;;;;12.20;99.90;;;;;;5072144;28;19920;-87
2022/12/20 11:05:58;;;;;;;;;;;12.30;99.90;;;;;;5067852;28;21235;-86
2022/12/20 11:08:38;;;;;;;;;;;12.30;99.90;;;;;;5076039;28;19931;-86
2022/12/20 11:11:12;;;;;;;;;;;12.30;99.90;;;;;;5075549;28;19913;-86
2022/12/20 11:13:38;;;;;;;;;;;12.30;99.90;;;;;;5074455;28;19908;-87
2022/12/20 11:16:04;;;;;;;;;;;12.40;99.90;;;;;;5074400;28;19909;-86
2022/12/20 11:18:39;;;;;;;;;;;12.40;99.90;;;;;;5074397;28;20282;-84
2022/12/20 11:21:04;;;;;;;;;;;12.40;99.90;;;;;;5074074;28;19909;-86
2022/12/20 11:23:36;;;;;;;;;;;12.50;99.90;;;;;;5074292;28;19912;-86
2022/12/20 11:26:10;;;;;;;;;;;12.50;99.90;;;;;;5071960;28;20411;-86
2022/12/20 11:28:48;;;;;;;;;;;12.50;99.90;;;;;;5054577;28;19913;-85
2022/12/20 11:31:33;;;;;;;;;;;12.60;99.90;;;;;;5054985;28;20010;-86
2022/12/20 11:33:59;;;;;;;;;;;12.60;99.90;;;;;;5054139;28;19909;-87
2022/12/20 11:36:36;;;;;;;;;;;12.70;99.90;;;;;;5054119;28;20381;-89
2022/12/20 11:39:20;;;;;;;;;;;12.70;99.90;;;;;;5053841;28;19944;-87
2022/12/20 11:41:54;;;;;;;;;;;12.70;99.90;;;;;;5053726;28;19913;-86
2022/12/20 11:44:23;;;;;;;;;;;12.80;99.90;;;;;;5054203;28;19913;-87
2022/12/20 11:46:55;;;;;;;;;;;12.80;99.90;;;;;;5053907;28;19909;-86
2022/12/20 11:49:34;;;;;;;;;;;12.90;99.90;;;;;;5053927;28;19915;-87
2022/12/20 11:52:29;;;;;;;;;;;12.90;99.90;;;;;;5053788;28;19908;-86
2022/12/20 11:55:20;;;;;;;;;;;12.90;99.90;;;;;;5000717;28;19909;-89
2022/12/20 11:57:49;;;;;;;;;;;12.90;99.90;;;;;;5044432;28;19932;-86
2022/12/20 12:00:16;;;;;;;;;;;12.90;99.90;;;;;;5053888;28;19909;-88
2022/12/20 12:02:54;;;;;;;;;;;12.90;99.90;;;;;;5053808;28;19913;-85
2022/12/20 12:05:38;;;;;;;;;;;12.90;99.90;;;;;;5057895;28;20671;-84
2022/12/20 12:08:06;;;;;;;;;;;12.80;99.90;;;;;;5073456;28;19909;-85
2022/12/20 12:10:36;;;;;;;;;;;12.90;99.90;;;;;;5073097;28;19912;-86
2022/12/20 12:13:11;;;;;;;;;;;12.90;99.90;;;;;;5073227;28;19952;-86
2022/12/20 12:15:47;;;;;;;;;;;12.90;99.90;;;;;;5072630;28;19908;-86
2022/12/20 12:18:15;;;;;;;;;;;12.90;99.90;;;;;;5069614;28;19913;-86
2022/12/20 12:20:43;;;;;;;;;;;12.90;99.90;;;;;;5054563;28;19909;-86
2022/12/20 12:23:27;;;;;;;;;;;12.90;99.90;;;;;;5053051;28;19920;-85
2022/12/20 12:25:52;;;;;;;;;;;12.60;99.90;;;;;;5053103;28;19908;-85
2022/12/20 12:28:19;;;;;;;;;;;12.40;99.90;;;;;;5053181;28;20289;-86
2022/12/20 12:30:47;;;;;;;;;;;12.40;99.90;;;;;;5054057;28;19923;-85
2022/12/20 12:33:19;;;;;;;;;;;12.40;99.90;;;;;;5052810;28;20370;-86
2022/12/20 12:35:48;;;;;;;;;;;12.40;99.90;;;;;;5052774;28;20009;-85
2022/12/20 12:38:39;;;;;;;;;;;12.40;99.90;;;;;;5052907;28;19912;-86
2022/12/20 12:41:23;;;;;;;;;;;12.40;99.90;;;;;;5052620;28;19924;-87
2022/12/20 12:43:50;;;;;;;;;;;12.40;99.90;;;;;;5052877;28;20047;-86
2022/12/20 12:46:33;;;;;;;;;;;12.40;99.90;;;;;;5052775;28;19909;-86
2022/12/20 12:48:59;;;;;;;;;;;12.40;99.90;;;;;;5054122;28;20430;-86
2022/12/20 12:51:30;;;;;;;;;;;12.40;99.90;;;;;;5052105;28;20043;-85
2022/12/20 12:54:16;;;;;;;;;;;12.30;99.90;;;;;;5052247;28;19909;-84
2022/12/20 12:56:44;;;;;;;;;;;12.30;99.90;;;;;;5048282;28;19913;-85
2022/12/20 12:59:15;;;;;;;;;;;12.30;99.90;;;;;;5052139;28;19909;-85
2022/12/20 13:01:52;;;;;;;;;;;12.40;99.90;;;;;;5051977;28;19916;-85
2022/12/20 13:04:21;;;;;;;;;;;12.30;99.90;;;;;;5052118;28;20389;-84
2022/12/20 13:06:46;;;;;;;;;;;12.30;99.90;;;;;;5051995;28;20309;-84
2022/12/20 13:09:35;;;;;;;;;;;12.30;99.90;;;;;;5052156;28;20007;-84
2022/12/20 13:12:20;;;;;;;;;;;12.30;99.90;;;;;;5052473;28;19913;-84
2022/12/20 13:14:46;;;;;;;;;;;12.20;99.90;;;;;;5052246;28;19924;-84
2022/12/20 13:17:12;;;;;;;;;;;12.20;99.90;;;;;;5053757;28;19917;-85
2022/12/20 13:19:37;;;;;;;;;;;12.20;99.90;;;;;;5052714;28;19915;-84
2022/12/20 13:22:18;;;;;;;;;;;12.10;99.90;;;;;;5051600;28;20378;-84
2022/12/20 13:25:01;;;;;;;;;;;12.00;99.90;;;;;;5052535;28;20247;-85
2022/12/20 13:27:27;;;;;;;;;;;12.00;99.90;;;;;;5052166;28;19999;-86
2022/12/20 13:29:55;;;;;;;;;;;11.90;99.90;;;;;;5052678;28;19956;-86
2022/12/20 13:32:39;;;;;;;;;;;11.80;99.90;;;;;;5052228;28;19909;-85
2022/12/20 13:35:25;;;;;;;;;;;11.80;99.90;;;;;;5052749;28;20339;-86
2022/12/20 13:37:50;;;;;;;;;;;11.80;99.90;;;;;;5052593;28;19909;-86
2022/12/20 13:40:21;;;;;;;;;;;11.70;99.90;;;;;;5084187;22;19928;-88
2022/12/20 13:42:50;;;;;;;;;;;11.70;99.90;;;;;;5088222;28;19958;-86
2022/12/20 13:45:16;;;;;;;;;;;11.70;99.90;;;;;;5072093;28;19912;-86
2022/12/20 13:47:45;;;;;;;;;;;11.60;99.90;;;;;;5072107;28;19915;-85
2022/12/20 13:50:23;;;;;;;;;;;11.50;99.90;;;;;;5071679;28;19908;-86
2022/12/20 13:52:49;;;;;;;;;;;11.50;99.90;;;;;;5071829;28;19912;-86
2022/12/20 13:55:21;;;;;;;;;;;11.50;99.90;;;;;;5072288;28;19908;-86
2022/12/20 13:57:47;;;;;;;;;;;11.50;99.90;;;;;;5073595;28;20385;-86
2022/12/20 14:00:26;;;;;;;;;;;11.50;99.90;;;;;;5072941;28;19908;-87
2022/12/20 14:02:52;;;;;;;;;;;11.50;99.90;;;;;;5071641;28;19971;-86
2022/12/20 14:05:21;;;;;;;;;;;11.50;99.90;;;;;;5072819;28;19916;-86
2022/12/20 14:07:50;;;;;;;;;;;11.50;99.90;;;;;;5071321;28;19957;-86
2022/12/20 14:10:19;;;;;;;;;;;11.50;99.90;;;;;;5071375;28;19908;-86
2022/12/20 14:12:45;;;;;;;;;;;11.50;99.90;;;;;;5071251;28;19910;-87
2022/12/20 14:15:22;;;;;;;;;;;11.50;99.90;;;;;;5071377;28;20405;-86
2022/12/20 14:17:48;;;;;;;;;;;11.50;99.90;;;;;;5071524;28;19940;-87
2022/12/20 14:20:15;;;;;;;;;;;11.50;99.90;;;;;;5071412;28;20408;-86
2022/12/20 14:22:44;;;;;;;;;;;11.50;99.90;;;;;;5086217;28;19912;-86
2022/12/20 14:25:13;;;;;;;;;;;11.50;99.90;;;;;;5091554;28;19915;-87
2022/12/20 14:27:38;;;;;;;;;;;11.50;99.90;;;;;;5094793;28;20517;-85
2022/12/20 14:30:04;;;;;;;;;;;11.50;99.90;;;;;;5092448;28;19908;-86
2022/12/20 14:32:30;;;;;;;;;;;11.50;99.90;;;;;;5092602;28;19908;-86
2022/12/20 14:34:56;;;;;;;;;;;11.50;99.90;;;;;;5091719;28;19908;-85